createdAt,value
2022-12-08T00:01:22.528Z,97.14
2022-12-08T00:06:22.523Z,95.44
2022-12-08T00:11:22.535Z,95.74
2022-12-08T00:16:22.538Z,95.74
2022-12-08T00:21:22.545Z,95.62
2022-12-08T00:26:22.585Z,96.54
2022-12-08T00:31:22.573Z,96.54
2022-12-08T00:36:22.573Z,95.47
2022-12-08T00:41:22.713Z,97.34
2022-12-08T00:46:22.617Z,96.90
2022-12-08T00:51:22.948Z,96.90
2022-12-08T00:56:22.522Z,99.29
2022-12-08T01:01:22.820Z,99.43
2022-12-08T01:06:22.800Z,98.56
2022-12-08T01:11:22.543Z,98.56
2022-12-08T01:16:22.836Z,98.71
2022-12-08T01:21:22.601Z,98.99
2022-12-08T01:31:23.241Z,97.91
2022-12-08T01:36:22.660Z,99.64
2022-12-08T01:41:22.822Z,99.60
2022-12-08T01:46:22.713Z,99.92
2022-12-08T01:51:22.828Z,99.58
2022-12-08T02:01:22.865Z,97.58
2022-12-08T02:06:22.580Z,97.58
2022-12-08T02:11:22.737Z,97.48
2022-12-08T02:16:22.940Z,99.01
2022-12-08T02:21:22.541Z,98.93
2022-12-08T02:26:22.865Z,98.93
2022-12-08T02:31:22.729Z,98.51
2022-12-08T02:36:22.837Z,98.07
2022-12-08T02:41:22.629Z,98.07
2022-12-08T02:46:22.897Z,97.72
2022-12-08T02:51:22.594Z,97.06
2022-12-08T02:56:22.574Z,97.01
2022-12-08T03:01:22.653Z,97.05
2022-12-08T03:06:22.571Z,98.02
2022-12-08T03:11:22.597Z,97.78
2022-12-08T03:16:22.686Z,97.78
2022-12-08T03:21:22.837Z,97.55
2022-12-08T03:26:22.646Z,96.59
2022-12-08T03:31:22.726Z,97.19
2022-12-08T03:36:22.665Z,97.13
2022-12-08T03:41:22.783Z,97.33
2022-12-08T03:51:22.720Z,98.27
2022-12-08T03:56:22.610Z,97.64
2022-12-08T04:01:23.112Z,98.48
2022-12-08T04:11:22.970Z,97.90
2022-12-08T04:16:22.745Z,97.46
2022-12-08T04:21:22.668Z,97.46
2022-12-08T04:31:22.978Z,98.09
2022-12-08T04:36:22.792Z,98.52
2022-12-08T04:41:22.624Z,98.71
2022-12-08T04:46:22.702Z,98.42
2022-12-08T04:51:22.634Z,98.69
2022-12-08T04:56:22.714Z,98.08
2022-12-08T05:01:22.934Z,98.08
2022-12-08T05:06:22.699Z,97.94
2022-12-08T05:11:22.836Z,97.94
2022-12-08T05:16:22.703Z,99.05
2022-12-08T05:21:22.784Z,99.05
2022-12-08T05:26:22.618Z,98.99
2022-12-08T05:31:22.883Z,98.99
2022-12-08T05:36:22.639Z,98.75
2022-12-08T05:41:22.699Z,98.75
2022-12-08T05:46:22.710Z,98.94
2022-12-08T05:51:22.723Z,99.45
2022-12-08T05:56:22.669Z,99.20
2022-12-08T06:01:22.614Z,99.15
2022-12-08T06:06:22.685Z,99.65
2022-12-08T06:11:22.632Z,99.12
2022-12-08T06:16:22.691Z,99.49
2022-12-08T06:21:22.671Z,99.26
2022-12-08T06:26:22.744Z,99.26
2022-12-08T06:31:22.922Z,99.15
2022-12-08T06:41:22.883Z,99.31
2022-12-08T06:46:22.755Z,99.63
2022-12-08T06:51:22.842Z,99.25
2022-12-08T06:56:22.720Z,99.25
2022-12-08T07:01:23.006Z,99.18
2022-12-08T07:06:22.966Z,98.77
2022-12-08T07:11:22.960Z,98.40
2022-12-08T07:16:22.930Z,98.40
2022-12-08T07:21:22.676Z,98.53
2022-12-08T07:26:22.670Z,98.83
2022-12-08T07:31:22.816Z,98.31
2022-12-08T07:36:22.878Z,98.07
2022-12-08T07:41:23.609Z,98.07
2022-12-08T07:46:22.892Z,98.92
2022-12-08T07:51:23.238Z,98.28
2022-12-08T07:56:22.765Z,98.28
2022-12-08T08:01:22.826Z,98.37
2022-12-08T08:06:22.692Z,98.29
2022-12-08T08:11:22.904Z,98.40
2022-12-08T08:16:22.806Z,98.68
2022-12-08T08:21:44.505Z,97.66
2022-12-08T08:26:22.725Z,96.95
2022-12-08T08:31:22.935Z,96.95
2022-12-08T08:36:22.840Z,96.33
2022-12-08T08:41:22.740Z,95.83
2022-12-08T08:46:22.799Z,95.41
2022-12-08T08:51:22.718Z,94.75
2022-12-08T08:56:22.721Z,94.16
2022-12-08T09:01:22.732Z,94.11
2022-12-08T09:06:22.904Z,94.11
2022-12-08T09:11:23.054Z,93.11
2022-12-08T09:16:22.819Z,92.86
2022-12-08T09:21:23.291Z,93.33
2022-12-08T09:26:22.830Z,93.33
2022-12-08T09:31:23.067Z,92.75
2022-12-08T09:36:22.696Z,93.25
2022-12-08T09:41:23.109Z,93.25
2022-12-08T09:46:22.822Z,92.16
2022-12-08T09:51:22.783Z,92.30
2022-12-08T09:56:22.855Z,91.98
2022-12-08T10:01:22.818Z,91.90
2022-12-08T10:06:23.048Z,92.33
2022-12-08T10:11:22.881Z,92.23
2022-12-08T10:16:29.304Z,92.34
2022-12-08T10:21:22.851Z,92.29
2022-12-08T10:26:22.765Z,92.65
2022-12-08T10:31:22.902Z,92.61
2022-12-08T10:36:22.939Z,92.46
2022-12-08T10:41:22.797Z,92.46
2022-12-08T10:46:22.912Z,91.83
2022-12-08T10:51:22.737Z,91.82
2022-12-08T10:56:22.897Z,91.00
2022-12-08T11:01:22.829Z,91.26
2022-12-08T11:06:22.847Z,90.76
2022-12-08T11:11:27.692Z,91.01
2022-12-08T11:16:22.871Z,90.24
2022-12-08T11:21:22.962Z,90.76
2022-12-08T11:26:22.809Z,91.29
2022-12-08T11:31:22.860Z,91.02
2022-12-08T11:36:22.807Z,90.81
2022-12-08T11:41:22.881Z,90.65
2022-12-08T11:46:22.887Z,90.86
2022-12-08T11:51:22.891Z,90.78
2022-12-08T11:56:22.770Z,91.16
2022-12-08T12:01:22.815Z,90.12
2022-12-08T12:11:22.830Z,87.06
2022-12-08T12:16:22.946Z,87.06
2022-12-08T12:21:23.085Z,87.14
2022-12-08T12:26:22.918Z,88.92
2022-12-08T12:31:23.083Z,90.24
2022-12-08T12:36:22.757Z,90.13
2022-12-08T12:41:25.499Z,90.51
2022-12-08T12:46:22.912Z,90.51
2022-12-08T12:51:22.996Z,90.75
2022-12-08T12:56:22.831Z,91.24
2022-12-08T13:01:23.033Z,91.24
2022-12-08T13:06:23.134Z,90.72
2022-12-08T13:11:22.928Z,90.72
2022-12-08T13:16:22.788Z,89.87
2022-12-08T13:21:22.931Z,89.44
2022-12-08T13:26:23.032Z,89.44
2022-12-08T13:31:22.917Z,88.79
2022-12-08T13:36:22.840Z,88.79
2022-12-08T13:41:22.833Z,88.32
2022-12-08T13:47:09.309Z,87.27
2022-12-08T13:53:10.339Z,87.01
2022-12-08T13:57:02.398Z,87.01
2022-12-08T14:01:23.151Z,85.35
2022-12-08T14:06:22.861Z,85.35
2022-12-08T14:11:22.834Z,84.16
2022-12-08T14:16:23.001Z,84.13
2022-12-08T14:21:23.029Z,83.59
2022-12-08T14:26:22.894Z,83.18
2022-12-08T14:31:23.033Z,83.33
2022-12-08T14:36:23.249Z,83.76
2022-12-08T14:46:23.288Z,82.52
2022-12-08T14:51:22.821Z,82.52
2022-12-08T14:56:23.096Z,82.79
2022-12-08T15:01:22.894Z,82.61
2022-12-08T15:06:22.885Z,82.34
2022-12-08T15:11:22.903Z,82.80
2022-12-08T15:16:22.998Z,82.89
2022-12-08T15:21:23.192Z,82.89
2022-12-08T15:26:22.889Z,83.01
2022-12-08T15:36:23.273Z,82.96
2022-12-08T15:41:23.146Z,81.84
2022-12-08T15:46:22.983Z,82.23
2022-12-08T15:51:22.904Z,81.89
2022-12-08T16:12:03.926Z,81.02
2022-12-08T16:16:23.182Z,80.62
2022-12-08T16:21:53.278Z,81.70
2022-12-08T16:27:35.219Z,81.97
2022-12-08T16:31:23.481Z,81.50
2022-12-08T16:36:22.881Z,81.50
2022-12-08T16:41:22.911Z,81.47
2022-12-08T16:46:22.912Z,81.79
2022-12-08T16:51:26.804Z,81.79
2022-12-08T16:56:28.743Z,83.53
2022-12-08T17:01:22.975Z,83.53
2022-12-08T17:06:23.083Z,84.55
2022-12-08T17:11:23.170Z,84.94
2022-12-08T17:16:23.048Z,85.17
2022-12-08T17:21:22.959Z,85.85
2022-12-08T17:26:22.908Z,84.79
2022-12-08T17:31:27.787Z,84.26
2022-12-08T17:36:23.345Z,84.32
2022-12-08T17:41:23.063Z,84.32
2022-12-08T17:46:23.014Z,83.18
2022-12-08T17:51:23.045Z,83.80
2022-12-08T17:56:23.205Z,83.80
2022-12-08T18:01:23.452Z,83.07
2022-12-08T18:06:25.726Z,83.17
2022-12-08T18:11:23.225Z,83.17
2022-12-08T18:16:23.216Z,82.92
2022-12-08T18:21:23.549Z,83.21
2022-12-08T18:26:23.218Z,83.50
2022-12-08T18:36:23.970Z,84.17
2022-12-08T18:41:22.956Z,84.28
2022-12-08T18:46:23.358Z,84.65
2022-12-08T18:51:23.415Z,83.94
2022-12-08T18:56:23.092Z,84.09
2022-12-08T19:01:24.477Z,84.09
2022-12-08T19:06:22.952Z,84.98
2022-12-08T19:11:23.040Z,84.21
2022-12-08T19:16:23.285Z,84.80
2022-12-08T19:21:23.110Z,84.61
2022-12-08T19:26:24.464Z,85.25
2022-12-08T19:31:23.416Z,84.77
2022-12-08T19:36:23.190Z,84.76
2022-12-08T19:41:23.255Z,84.44
2022-12-08T19:46:23.228Z,84.44
2022-12-08T19:51:24.275Z,84.90
2022-12-08T19:56:23.893Z,84.93
2022-12-08T20:01:23.402Z,85.12
2022-12-08T20:06:23.371Z,85.12
2022-12-08T20:11:23.198Z,84.43
2022-12-08T20:16:23.425Z,84.60
2022-12-08T20:21:23.684Z,84.17
2022-12-08T20:26:23.074Z,84.48
2022-12-08T20:31:23.463Z,84.48
2022-12-08T20:36:23.097Z,84.53
2022-12-08T20:41:24.067Z,85.35
2022-12-08T20:46:24.268Z,84.84
2022-12-08T20:51:28.441Z,84.60
2022-12-08T20:56:23.650Z,85.46
2022-12-08T21:06:23.330Z,86.29
2022-12-08T21:11:23.063Z,85.99
2022-12-08T21:16:23.392Z,86.31
2022-12-08T21:21:23.243Z,86.27
2022-12-08T21:26:23.257Z,87.34
2022-12-08T21:31:23.633Z,87.51
2022-12-08T21:36:23.310Z,87.51
2022-12-08T21:41:23.272Z,87.25
2022-12-08T21:46:23.093Z,87.25
2022-12-08T21:51:23.105Z,89.09
2022-12-08T21:56:23.484Z,89.09
2022-12-08T22:01:23.131Z,89.38
2022-12-08T22:06:23.204Z,89.65
2022-12-08T22:11:23.065Z,89.43
2022-12-08T22:16:23.397Z,89.45
2022-12-08T22:21:23.102Z,89.97
2022-12-08T22:26:23.087Z,90.06
2022-12-08T22:31:23.434Z,90.06
2022-12-08T22:36:23.373Z,89.65
2022-12-08T22:41:23.305Z,89.66
2022-12-08T22:46:23.417Z,89.86
2022-12-08T22:51:23.115Z,89.86
2022-12-08T22:56:23.234Z,88.81
2022-12-08T23:01:23.554Z,88.84
2022-12-08T23:06:23.489Z,89.54
2022-12-08T23:11:23.504Z,90.20
2022-12-08T23:16:23.249Z,89.66
2022-12-08T23:21:23.412Z,89.66
2022-12-08T23:26:23.034Z,90.49
2022-12-08T23:31:23.577Z,91.03
2022-12-08T23:36:23.092Z,91.71
2022-12-08T23:41:23.109Z,91.19
2022-12-08T23:46:23.193Z,91.69
2022-12-08T23:51:23.040Z,91.65
2022-12-08T23:56:29.904Z,91.99
